SKUNK2 KJWN-
Flight info
| Callsign | SKUNK2 |
|---|---|
| Flight time | N/A |
| Altitude | VFR/025 |
| Route | |
| Aircraft | T38/L-DOV/C |
Departure
| Time | 2026-04-26 19:55 |
|---|---|
| Airport | John C Tune Airport (KJWN) |
Arrival
| Time | N/A |
|---|---|
| Airport | - |
| Time | Latitude | Longitude | Altitude | Speed | Heading |
|---|---|---|---|---|---|
| 2026-04-26 19:47 | 36.17926 | -86.88511 | 475 ft | 0 kts | 129° |
| 2026-04-26 19:48 | 36.17918 | -86.88501 | 472 ft | 7 kts | 141° |
| 2026-04-26 19:48 | 36.17859 | -86.88420 | 475 ft | 19 kts | 135° |
| 2026-04-26 19:49 | 36.17788 | -86.88398 | 477 ft | 10 kts | 281° |
| 2026-04-26 19:49 | 36.17866 | -86.88491 | 474 ft | 19 kts | 309° |
| 2026-04-26 19:49 | 36.17901 | -86.88622 | 477 ft | 4 kts | 272° |
| 2026-04-26 19:50 | 36.17898 | -86.88634 | 478 ft | 5 kts | 234° |
| 2026-04-26 19:50 | 36.17813 | -86.88668 | 477 ft | 22 kts | 193° |
| 2026-04-26 19:50 | 36.17632 | -86.88727 | 472 ft | 29 kts | 195° |
| 2026-04-26 19:50 | 36.17505 | -86.88772 | 470 ft | 10 kts | 214° |
| 2026-04-26 19:51 | 36.17494 | -86.88805 | 469 ft | 0 kts | 280° |
| 2026-04-26 19:53 | 36.17498 | -86.88827 | 469 ft | 0 kts | 280° |
| 2026-04-26 19:54 | 36.17498 | -86.88829 | 468 ft | 3 kts | 280° |
| 2026-04-26 19:54 | 36.17519 | -86.88902 | 468 ft | 6 kts | 338° |
| 2026-04-26 19:55 | 36.17722 | -86.88838 | 475 ft | 79 kts | 14° |
| 2026-04-26 19:55 | 36.18591 | -86.88564 | 500 ft | 173 kts | 13° |
| 2026-04-26 19:55 | 36.19942 | -86.88152 | 807 ft | 227 kts | 13° |
| 2026-04-26 19:55 | 36.21692 | -86.87621 | 1369 ft | 269 kts | 20° |
| 2026-04-26 19:56 | 36.23364 | -86.86437 | 2421 ft | 289 kts | 40° |
| 2026-04-26 19:56 | 36.25074 | -86.84669 | 2611 ft | 337 kts | 41° |
| 2026-04-26 19:56 | 36.26813 | -86.82563 | 3096 ft | 341 kts | 57° |
| 2026-04-26 19:56 | 36.27657 | -86.79802 | 4231 ft | 346 kts | 83° |
| 2026-04-26 19:57 | 36.26852 | -86.77182 | 4547 ft | 341 kts | 152° |
| 2026-04-26 19:57 | 36.24518 | -86.76508 | 4737 ft | 354 kts | 168° |
| 2026-04-26 19:57 | 36.22080 | -86.75854 | 4823 ft | 364 kts | 157° |
| 2026-04-26 19:57 | 36.19901 | -86.74314 | 4809 ft | 370 kts | 143° |
| 2026-04-26 19:58 | 36.17615 | -86.72240 | 5164 ft | 423 kts | 143° |
| 2026-04-26 19:58 | 36.14989 | -86.69994 | 5263 ft | 484 kts | 145° |
| 2026-04-26 19:58 | 36.13021 | -86.68390 | 5318 ft | 519 kts | 146° |
| 2026-04-26 19:58 | 36.08520 | -86.65307 | 5254 ft | 558 kts | 167° |
| 2026-04-26 19:59 | 36.04629 | -86.65343 | 5287 ft | 571 kts | 195° |
| 2026-04-26 19:59 | 36.01177 | -86.67778 | 5124 ft | 587 kts | 224° |
| 2026-04-26 19:59 | 35.99423 | -86.70379 | 4874 ft | 599 kts | 233° |
| 2026-04-26 19:59 | 35.96418 | -86.76235 | 4876 ft | 608 kts | 248° |
| 2026-04-26 20:00 | 35.96382 | -86.81217 | 5039 ft | 604 kts | 295° |
| 2026-04-26 20:00 | 35.99564 | -86.84512 | 5010 ft | 594 kts | 344° |
| 2026-04-26 20:00 | 36.02298 | -86.84769 | 4994 ft | 564 kts | 12° |
| 2026-04-26 20:00 | 36.06031 | -86.83915 | 5319 ft | 537 kts | 3° |
| 2026-04-26 20:01 | 36.09590 | -86.84915 | 4814 ft | 488 kts | 343° |
| 2026-04-26 20:01 | 36.12984 | -86.86388 | 2094 ft | 513 kts | 339° |
| 2026-04-26 20:01 | 36.16114 | -86.87954 | 2011 ft | 457 kts | 339° |
| 2026-04-26 20:01 | 36.18932 | -86.88879 | 2176 ft | 340 kts | 65° |
| 2026-04-26 20:02 | 36.17468 | -86.87731 | 2415 ft | 316 kts | 172° |
| 2026-04-26 20:02 | 36.15117 | -86.87405 | 2494 ft | 360 kts | 172° |
| 2026-04-26 20:02 | 36.12455 | -86.87036 | 2756 ft | 396 kts | 173° |
| 2026-04-26 20:02 | 36.10595 | -86.86460 | 2765 ft | 417 kts | 155° |
| 2026-04-26 20:03 | 36.07102 | -86.87394 | 2220 ft | 452 kts | 260° |
| 2026-04-26 20:03 | 36.07654 | -86.89863 | 2029 ft | 452 kts | 329° |
| 2026-04-26 20:03 | 36.11941 | -86.89813 | 1272 ft | 524 kts | 6° |
| 2026-04-26 20:03 | 36.14567 | -86.89423 | 900 ft | 564 kts | 9° |
| 2026-04-26 20:04 | 36.19720 | -86.88253 | 1101 ft | 607 kts | 12° |
| 2026-04-26 20:04 | 36.24009 | -86.87270 | 1384 ft | 588 kts | 354° |
| 2026-04-26 20:04 | 36.25934 | -86.90508 | 3960 ft | 482 kts | 250° |
| 2026-04-26 20:04 | 36.24598 | -86.94167 | 5289 ft | 444 kts | 247° |
| 2026-04-26 20:05 | 36.24071 | -86.97761 | 5248 ft | 428 kts | 278° |
| 2026-04-26 20:05 | 36.24786 | -87.01422 | 5400 ft | 435 kts | 285° |
| 2026-04-26 20:05 | 36.26051 | -87.04887 | 5164 ft | 452 kts | 305° |
| 2026-04-26 20:05 | 36.28064 | -87.07974 | 5203 ft | 461 kts | 312° |
| 2026-04-26 20:06 | 36.30397 | -87.10742 | 5456 ft | 475 kts | 319° |
| 2026-04-26 20:06 | 36.32099 | -87.12578 | 5447 ft | 483 kts | 320° |
| 2026-04-26 20:06 | 36.34675 | -87.15291 | 5355 ft | 489 kts | 321° |
| 2026-04-26 20:06 | 36.37287 | -87.17999 | 5442 ft | 489 kts | 321° |
| 2026-04-26 20:07 | 36.39746 | -87.20514 | 5518 ft | 416 kts | 321° |
| 2026-04-26 20:07 | 36.41871 | -87.22747 | 5589 ft | 396 kts | 319° |
| 2026-04-26 20:07 | 36.43963 | -87.24986 | 5595 ft | 396 kts | 320° |
| 2026-04-26 20:07 | 36.46066 | -87.27181 | 5667 ft | 394 kts | 321° |
| 2026-04-26 20:08 | 36.48212 | -87.29359 | 5732 ft | 403 kts | 322° |
| 2026-04-26 20:08 | 36.50440 | -87.31581 | 5640 ft | 417 kts | 321° |
| 2026-04-26 20:08 | 36.52673 | -87.33921 | 5514 ft | 422 kts | 319° |
| 2026-04-26 20:08 | 36.54838 | -87.36385 | 5540 ft | 421 kts | 311° |
| 2026-04-26 20:09 | 36.56398 | -87.39382 | 5388 ft | 410 kts | 295° |
| 2026-04-26 20:09 | 36.57361 | -87.42657 | 5542 ft | 390 kts | 285° |
| 2026-04-26 20:09 | 36.57930 | -87.45879 | 5812 ft | 380 kts | 277° |
| 2026-04-26 20:09 | 36.58105 | -87.49171 | 5844 ft | 384 kts | 268° |
| 2026-04-26 20:10 | 36.57949 | -87.52560 | 5827 ft | 404 kts | 265° |
| 2026-04-26 20:10 | 36.57720 | -87.56156 | 5681 ft | 425 kts | 264° |
| 2026-04-26 20:10 | 36.58497 | -87.59728 | 5467 ft | 440 kts | 297° |
| 2026-04-26 20:10 | 36.59843 | -87.63040 | 6343 ft | 420 kts | 296° |
| 2026-04-26 20:11 | 36.60953 | -87.66223 | 8103 ft | 380 kts | 283° |
| 2026-04-26 20:11 | 36.60990 | -87.69485 | 8605 ft | 385 kts | 263° |
| 2026-04-26 20:11 | 36.60698 | -87.72867 | 8415 ft | 399 kts | 262° |
| 2026-04-26 20:12 | 36.58295 | -87.78193 | 8222 ft | 401 kts | 178° |
| 2026-04-26 20:12 | 36.55471 | -87.78030 | 8130 ft | 407 kts | 177° |
| 2026-04-26 20:12 | 36.54607 | -87.80242 | 7221 ft | 356 kts | 246° |
| 2026-04-26 20:12 | 36.53040 | -87.79695 | 7077 ft | 337 kts | 108° |
| 2026-04-26 20:13 | 36.51495 | -87.78701 | 6559 ft | 310 kts | 231° |
| 2026-04-26 20:13 | 36.49670 | -87.79226 | 6389 ft | 297 kts | 189° |
| 2026-04-26 20:13 | 36.49539 | -87.80801 | 6257 ft | 179 kts | 271° |
| 2026-04-26 20:13 | 36.49878 | -87.83818 | 3824 ft | 427 kts | 314° |
| 2026-04-26 20:14 | 36.52695 | -87.84825 | 4289 ft | 458 kts | 351° |
| 2026-04-26 20:14 | 36.55868 | -87.85017 | 5721 ft | 459 kts | 31° |
| 2026-04-26 20:14 | 36.56918 | -87.81510 | 6990 ft | 474 kts | 85° |
| 2026-04-26 20:14 | 36.57172 | -87.77440 | 6856 ft | 468 kts | 86° |
| 2026-04-26 20:15 | 36.59026 | -87.75185 | 7920 ft | 442 kts | 336° |
| 2026-04-26 20:15 | 36.61768 | -87.77336 | 8009 ft | 499 kts | 329° |
| 2026-04-26 20:15 | 36.65214 | -87.78626 | 8007 ft | 539 kts | 358° |
| 2026-04-26 20:15 | 36.69012 | -87.78720 | 7973 ft | 548 kts | 359° |
| 2026-04-26 20:16 | 36.72593 | -87.79544 | 8573 ft | 517 kts | 314° |
| 2026-04-26 20:16 | 36.75070 | -87.82757 | 9011 ft | 544 kts | 325° |
| 2026-04-26 20:16 | 36.76895 | -87.86620 | 8595 ft | 563 kts | 265° |
| 2026-04-26 20:16 | 36.74892 | -87.90811 | 7916 ft | 589 kts | 233° |
| 2026-04-26 20:17 | 36.75452 | -87.94348 | 8553 ft | 543 kts | 8° |
| 2026-04-26 20:17 | 36.75577 | -87.91454 | 495 ft | 42 kts | 324° |
| 2026-04-26 20:17 | 36.75507 | -87.91232 | 505 ft | 29 kts | 287° |
| 2026-04-26 20:17 | 36.75514 | -87.91258 | 497 ft | 0 kts | 207° |
| 2026-04-26 20:18 | 36.75495 | -87.93955 | 7174 ft | 250 kts | 269° |
| 2026-04-26 20:18 | 36.75175 | -87.96431 | 7218 ft | 317 kts | 231° |
| 2026-04-26 20:19 | 36.73192 | -87.97428 | 8462 ft | 328 kts | 159° |
| 2026-04-26 20:19 | 36.70731 | -87.96673 | 8552 ft | 405 kts | 172° |
| 2026-04-26 20:19 | 36.67800 | -87.96191 | 8579 ft | 465 kts | 172° |
| 2026-04-26 20:19 | 36.64808 | -87.95692 | 9131 ft | 503 kts | 172° |
| 2026-04-26 20:20 | 36.61185 | -87.95063 | 8405 ft | 533 kts | 172° |
| 2026-04-26 20:20 | 36.57555 | -87.94451 | 8598 ft | 514 kts | 177° |
| 2026-04-26 20:20 | 36.54965 | -87.96730 | 8720 ft | 469 kts | 208° |
| 2026-04-26 20:20 | 36.51840 | -87.96769 | 9003 ft | 452 kts | 173° |
| 2026-04-26 20:21 | 36.49039 | -87.95562 | 8873 ft | 433 kts | 115° |
| 2026-04-26 20:21 | 36.49351 | -87.91963 | 8148 ft | 442 kts | 76° |
| 2026-04-26 20:21 | 36.47350 | -87.90014 | 7629 ft | 465 kts | 172° |
| 2026-04-26 20:21 | 36.45499 | -87.87331 | 8791 ft | 397 kts | 89° |
| 2026-04-26 20:22 | 36.44840 | -87.84161 | 6162 ft | 388 kts | 192° |
| 2026-04-26 20:22 | 36.45081 | -87.86997 | 5411 ft | 406 kts | 285° |
| 2026-04-26 20:22 | 36.46680 | -87.88497 | 4366 ft | 311 kts | 72° |
| 2026-04-26 20:22 | 36.47975 | -87.87156 | 1730 ft | 371 kts | 21° |
| 2026-04-26 20:23 | 36.49358 | -87.85813 | 2395 ft | 403 kts | 65° |
| 2026-04-26 20:23 | 36.47471 | -87.82212 | 2867 ft | 417 kts | 116° |
| 2026-04-26 20:23 | 36.48497 | -87.80004 | 4853 ft | 435 kts | 356° |
| 2026-04-26 20:23 | 36.51628 | -87.80388 | 5193 ft | 450 kts | 355° |
| 2026-04-26 20:24 | 36.53658 | -87.80619 | 5570 ft | 436 kts | 356° |
| 2026-04-26 20:24 | 36.56667 | -87.80951 | 5822 ft | 423 kts | 356° |
| 2026-04-26 20:24 | 36.59622 | -87.81285 | 5560 ft | 424 kts | 354° |
| 2026-04-26 20:24 | 36.62462 | -87.81686 | 5613 ft | 401 kts | 355° |
| 2026-04-26 20:25 | 36.65160 | -87.82378 | 5228 ft | 390 kts | 344° |
| 2026-04-26 20:25 | 36.66876 | -87.83020 | 5384 ft | 371 kts | 344° |
| 2026-04-26 20:25 | 36.70070 | -87.84264 | 5427 ft | 359 kts | 342° |
| 2026-04-26 20:25 | 36.72500 | -87.85259 | 5508 ft | 380 kts | 342° |
| 2026-04-26 20:26 | 36.75145 | -87.86332 | 5610 ft | 407 kts | 344° |
| 2026-04-26 20:26 | 36.77936 | -87.87378 | 5623 ft | 427 kts | 343° |
| 2026-04-26 20:26 | 36.80834 | -87.87234 | 5755 ft | 419 kts | 22° |
| 2026-04-26 20:26 | 36.83430 | -87.85484 | 5580 ft | 406 kts | 33° |
| 2026-04-26 20:27 | 36.85749 | -87.83583 | 5594 ft | 392 kts | 36° |
| 2026-04-26 20:27 | 36.87613 | -87.81145 | 4949 ft | 391 kts | 61° |
| 2026-04-26 20:27 | 36.89176 | -87.78413 | 4660 ft | 376 kts | 51° |
| 2026-04-26 20:27 | 36.90845 | -87.76022 | 4290 ft | 351 kts | 50° |
| 2026-04-26 20:28 | 36.92367 | -87.73752 | 3819 ft | 333 kts | 60° |
| 2026-04-26 20:28 | 36.92323 | -87.71288 | 4224 ft | 294 kts | 128° |
| 2026-04-26 20:28 | 36.90966 | -87.69061 | 3942 ft | 351 kts | 126° |
| 2026-04-26 20:28 | 36.89529 | -87.66248 | 3506 ft | 416 kts | 118° |
| 2026-04-26 20:29 | 36.88113 | -87.62850 | 3400 ft | 468 kts | 116° |
| 2026-04-26 20:29 | 36.86616 | -87.59016 | 3376 ft | 507 kts | 114° |
| 2026-04-26 20:29 | 36.85291 | -87.54828 | 3554 ft | 509 kts | 108° |
| 2026-04-26 20:29 | 36.84310 | -87.51019 | 3553 ft | 407 kts | 111° |
| 2026-04-26 20:30 | 36.82809 | -87.47982 | 3073 ft | 420 kts | 129° |
| 2026-04-26 20:30 | 36.80874 | -87.45425 | 3020 ft | 372 kts | 136° |
| 2026-04-26 20:30 | 36.78850 | -87.43527 | 2496 ft | 374 kts | 146° |
| 2026-04-26 20:30 | 36.76466 | -87.42241 | 2340 ft | 380 kts | 173° |
| 2026-04-26 20:31 | 36.73950 | -87.43035 | 2501 ft | 383 kts | 207° |
| 2026-04-26 20:31 | 36.71610 | -87.44469 | 2095 ft | 370 kts | 203° |
| 2026-04-26 20:31 | 36.69429 | -87.46353 | 2053 ft | 390 kts | 224° |
| 2026-04-26 20:31 | 36.67454 | -87.48736 | 2122 ft | 387 kts | 226° |
| 2026-04-26 20:32 | 36.68883 | -87.50210 | 2298 ft | 380 kts | 20° |
| 2026-04-26 20:32 | 36.70390 | -87.48187 | 1816 ft | 308 kts | 47° |
| 2026-04-26 20:32 | 36.71790 | -87.46202 | 1439 ft | 284 kts | 63° |
| 2026-04-26 20:32 | 36.71700 | -87.44259 | 1403 ft | 212 kts | 132° |
| 2026-04-26 20:33 | 36.70431 | -87.44486 | 1191 ft | 220 kts | 230° |
| 2026-04-26 20:33 | 36.69599 | -87.46092 | 838 ft | 226 kts | 231° |
| 2026-04-26 20:33 | 36.68583 | -87.47533 | 639 ft | 198 kts | 224° |
| 2026-04-26 20:33 | 36.67718 | -87.48594 | 626 ft | 181 kts | 221° |
| 2026-04-26 20:34 | 36.66728 | -87.49754 | 1763 ft | 223 kts | 217° |
| 2026-04-26 20:34 | 36.65245 | -87.50062 | 3930 ft | 253 kts | 164° |
| 2026-04-26 20:34 | 36.63352 | -87.48857 | 4665 ft | 355 kts | 144° |
| 2026-04-26 20:34 | 36.61158 | -87.46842 | 5154 ft | 443 kts | 143° |
| 2026-04-26 20:35 | 36.58611 | -87.43924 | 4966 ft | 553 kts | 132° |
| 2026-04-26 20:35 | 36.56005 | -87.40171 | 5504 ft | 546 kts | 130° |
| 2026-04-26 20:35 | 36.53955 | -87.36620 | 5445 ft | 471 kts | 124° |
| 2026-04-26 20:35 | 36.52166 | -87.33676 | 5489 ft | 387 kts | 126° |
| 2026-04-26 20:36 | 36.50610 | -87.31005 | 5483 ft | 387 kts | 125° |
| 2026-04-26 20:36 | 36.48985 | -87.28263 | 5456 ft | 399 kts | 127° |
| 2026-04-26 20:36 | 36.47299 | -87.25470 | 5474 ft | 408 kts | 126° |
| 2026-04-26 20:36 | 36.45585 | -87.22611 | 5425 ft | 417 kts | 126° |
| 2026-04-26 20:37 | 36.43833 | -87.19718 | 5447 ft | 421 kts | 126° |
| 2026-04-26 20:37 | 36.42119 | -87.16901 | 5438 ft | 388 kts | 127° |
| 2026-04-26 20:37 | 36.40462 | -87.14259 | 5430 ft | 388 kts | 128° |
| 2026-04-26 20:37 | 36.38791 | -87.11665 | 5414 ft | 392 kts | 127° |
| 2026-04-26 20:38 | 36.37102 | -87.08964 | 5305 ft | 380 kts | 127° |
| 2026-04-26 20:38 | 36.35484 | -87.06371 | 5334 ft | 380 kts | 127° |
| 2026-04-26 20:38 | 36.33941 | -87.03833 | 5393 ft | 362 kts | 125° |
| 2026-04-26 20:38 | 36.32489 | -87.01290 | 5378 ft | 366 kts | 125° |
| 2026-04-26 20:39 | 36.30939 | -86.98655 | 5420 ft | 389 kts | 126° |
| 2026-04-26 20:39 | 36.29873 | -86.96849 | 5456 ft | 393 kts | 126° |
| 2026-04-26 20:39 | 36.27786 | -86.93346 | 5411 ft | 372 kts | 123° |
| 2026-04-26 20:39 | 36.26267 | -86.90685 | 5422 ft | 384 kts | 126° |
| 2026-04-26 20:40 | 36.24754 | -86.88191 | 5280 ft | 315 kts | 127° |
| 2026-04-26 20:40 | 36.23947 | -86.86905 | 2387 ft | 340 kts | 126° |
| 2026-04-26 20:40 | 36.21958 | -86.83438 | 2001 ft | 370 kts | 124° |
| 2026-04-26 20:40 | 36.20536 | -86.80906 | 2503 ft | 372 kts | 125° |
| 2026-04-26 20:41 | 36.19046 | -86.78243 | 2985 ft | 373 kts | 122° |
| 2026-04-26 20:41 | 36.18019 | -86.75258 | 2828 ft | 367 kts | 103° |
| 2026-04-26 20:41 | 36.17602 | -86.72626 | 2616 ft | 356 kts | 99° |
| 2026-04-26 20:41 | 36.17341 | -86.69207 | 2118 ft | 329 kts | 93° |
| 2026-04-26 20:42 | 36.16201 | -86.67242 | 2096 ft | 328 kts | 193° |
| 2026-04-26 20:42 | 36.13873 | -86.68157 | 1793 ft | 384 kts | 196° |
| 2026-04-26 20:42 | 36.13182 | -86.66645 | 1620 ft | 327 kts | 32° |
| 2026-04-26 20:42 | 36.15125 | -86.66070 | 1489 ft | 276 kts | 5° |
| 2026-04-26 20:43 | 36.16308 | -86.66567 | 1029 ft | 238 kts | 284° |
| 2026-04-26 20:43 | 36.15443 | -86.67489 | 793 ft | 199 kts | 179° |
| 2026-04-26 20:43 | 36.14086 | -86.67751 | 597 ft | 176 kts | 194° |
| 2026-04-26 20:43 | 36.13068 | -86.68136 | 571 ft | 126 kts | 198° |
| 2026-04-26 20:44 | 36.12364 | -86.68427 | 577 ft | 82 kts | 195° |
| 2026-04-26 20:44 | 36.11930 | -86.68597 | 595 ft | 40 kts | 198° |
| 2026-04-26 20:44 | 36.11783 | -86.68640 | 600 ft | 9 kts | 150° |
| 2026-04-26 20:44 | 36.11756 | -86.68569 | 600 ft | 8 kts | 110° |
| 2026-04-26 20:45 | 36.11746 | -86.68548 | 599 ft | 0 kts | 129° |
| 2026-04-26 20:45 | 36.11744 | -86.68545 | 599 ft | 0 kts | 129° |
| 2026-04-26 20:45 | 36.11743 | -86.68544 | 599 ft | 0 kts | 129° |
| 2026-04-26 20:46 | 36.11736 | -86.68538 | 599 ft | 6 kts | 148° |
| 2026-04-26 20:46 | 36.11651 | -86.68490 | 592 ft | 23 kts | 156° |
| 2026-04-26 20:46 | 36.11501 | -86.68398 | 579 ft | 14 kts | 153° |
| 2026-04-26 20:47 | 36.11414 | -86.68340 | 580 ft | 13 kts | 151° |
| 2026-04-26 20:47 | 36.11385 | -86.68320 | 580 ft | 16 kts | 151° |
| 2026-04-26 20:47 | 36.11223 | -86.68213 | 581 ft | 17 kts | 152° |
| 2026-04-26 20:47 | 36.11141 | -86.68098 | 584 ft | 19 kts | 97° |
| 2026-04-26 20:48 | 36.11126 | -86.67968 | 585 ft | 16 kts | 97° |
| 2026-04-26 20:48 | 36.11115 | -86.67876 | 584 ft | 12 kts | 100° |
| 2026-04-26 20:48 | 36.11074 | -86.67810 | 584 ft | 7 kts | 135° |
| 2026-04-26 20:48 | 36.11074 | -86.67785 | 584 ft | 10 kts | 33° |
| 2026-04-26 20:49 | 36.11122 | -86.67747 | 582 ft | 0 kts | 33° |